sensor_id;sensor_type;location;lat;lon;timestamp;P1;durP1;ratioP1;P2;durP2;ratioP2
64966;SDS011;51710;38.732;-121.358;2022-10-31T00:01:18;7.65;;;4.15;;
64966;SDS011;51710;38.732;-121.358;2022-10-31T00:03:46;10.90;;;4.82;;
64966;SDS011;51710;38.732;-121.358;2022-10-31T00:06:14;9.32;;;4.85;;
64966;SDS011;51710;38.732;-121.358;2022-10-31T00:08:44;10.15;;;4.70;;
64966;SDS011;51710;38.732;-121.358;2022-10-31T00:11:11;8.95;;;4.70;;
64966;SDS011;51710;38.732;-121.358;2022-10-31T00:13:37;8.05;;;4.18;;
64966;SDS011;51710;38.732;-121.358;2022-10-31T00:16:04;6.55;;;3.65;;
64966;SDS011;51710;38.732;-121.358;2022-10-31T00:18:38;9.88;;;3.95;;
64966;SDS011;51710;38.732;-121.358;2022-10-31T00:21:04;9.55;;;3.60;;
64966;SDS011;51710;38.732;-121.358;2022-10-31T00:23:31;10.02;;;4.55;;
64966;SDS011;51710;38.732;-121.358;2022-10-31T00:26:01;7.97;;;3.70;;
64966;SDS011;51710;38.732;-121.358;2022-10-31T00:28:28;7.35;;;3.92;;
64966;SDS011;51710;38.732;-121.358;2022-10-31T00:30:59;8.90;;;4.20;;
64966;SDS011;51710;38.732;-121.358;2022-10-31T00:33:29;9.93;;;4.05;;
64966;SDS011;51710;38.732;-121.358;2022-10-31T00:35:56;11.57;;;4.07;;
64966;SDS011;51710;38.732;-121.358;2022-10-31T00:38:22;8.70;;;4.07;;
64966;SDS011;51710;38.732;-121.358;2022-10-31T00:40:49;9.80;;;4.50;;
64966;SDS011;51710;38.732;-121.358;2022-10-31T00:43:15;8.77;;;4.70;;
64966;SDS011;51710;38.732;-121.358;2022-10-31T00:45:42;9.20;;;4.18;;
64966;SDS011;51710;38.732;-121.358;2022-10-31T00:48:08;7.53;;;4.28;;
64966;SDS011;51710;38.732;-121.358;2022-10-31T00:50:35;8.80;;;4.95;;
64966;SDS011;51710;38.732;-121.358;2022-10-31T00:53:02;8.38;;;4.50;;
64966;SDS011;51710;38.732;-121.358;2022-10-31T00:55:29;11.20;;;4.85;;
64966;SDS011;51710;38.732;-121.358;2022-10-31T00:57:55;13.15;;;4.57;;
64966;SDS011;51710;38.732;-121.358;2022-10-31T01:00:21;16.23;;;4.65;;
64966;SDS011;51710;38.732;-121.358;2022-10-31T01:02:48;13.80;;;4.95;;
64966;SDS011;51710;38.732;-121.358;2022-10-31T01:05:14;9.50;;;4.88;;
64966;SDS011;51710;38.732;-121.358;2022-10-31T01:07:41;10.15;;;4.22;;
64966;SDS011;51710;38.732;-121.358;2022-10-31T01:10:09;10.63;;;4.65;;
64966;SDS011;51710;38.732;-121.358;2022-10-31T01:12:37;10.00;;;4.07;;
64966;SDS011;51710;38.732;-121.358;2022-10-31T01:15:05;10.73;;;4.15;;
64966;SDS011;51710;38.732;-121.358;2022-10-31T01:17:32;8.52;;;4.00;;
64966;SDS011;51710;38.732;-121.358;2022-10-31T01:19:59;18.52;;;5.07;;
64966;SDS011;51710;38.732;-121.358;2022-10-31T01:22:25;13.25;;;4.93;;
64966;SDS011;51710;38.732;-121.358;2022-10-31T01:24:52;11.40;;;4.55;;
64966;SDS011;51710;38.732;-121.358;2022-10-31T01:27:18;10.77;;;4.13;;
64966;SDS011;51710;38.732;-121.358;2022-10-31T01:29:45;7.00;;;4.10;;
64966;SDS011;51710;38.732;-121.358;2022-10-31T01:32:11;9.88;;;4.35;;
64966;SDS011;51710;38.732;-121.358;2022-10-31T01:34:37;10.18;;;4.65;;
64966;SDS011;51710;38.732;-121.358;2022-10-31T01:37:04;9.60;;;3.78;;
64966;SDS011;51710;38.732;-121.358;2022-10-31T01:39:30;11.55;;;4.30;;
64966;SDS011;51710;38.732;-121.358;2022-10-31T01:41:56;6.88;;;4.00;;
64966;SDS011;51710;38.732;-121.358;2022-10-31T01:47:07;9.75;;;4.78;;
64966;SDS011;51710;38.732;-121.358;2022-10-31T01:49:56;8.93;;;4.05;;
64966;SDS011;51710;38.732;-121.358;2022-10-31T01:52:27;7.72;;;3.92;;
64966;SDS011;51710;38.732;-121.358;2022-10-31T01:54:59;10.18;;;4.70;;
64966;SDS011;51710;38.732;-121.358;2022-10-31T01:57:35;9.05;;;4.07;;
64966;SDS011;51710;38.732;-121.358;2022-10-31T02:00:06;10.10;;;4.32;;
64966;SDS011;51710;38.732;-121.358;2022-10-31T02:02:35;9.25;;;4.05;;
64966;SDS011;51710;38.732;-121.358;2022-10-31T02:05:02;8.77;;;4.63;;
64966;SDS011;51710;38.732;-121.358;2022-10-31T02:07:45;7.80;;;3.83;;
64966;SDS011;51710;38.732;-121.358;2022-10-31T02:10:26;10.65;;;4.88;;
64966;SDS011;51710;38.732;-121.358;2022-10-31T02:12:54;10.27;;;5.07;;
64966;SDS011;51710;38.732;-121.358;2022-10-31T02:15:23;10.80;;;4.70;;
64966;SDS011;51710;38.732;-121.358;2022-10-31T02:17:50;10.43;;;5.40;;
64966;SDS011;51710;38.732;-121.358;2022-10-31T02:20:18;12.77;;;6.20;;
64966;SDS011;51710;38.732;-121.358;2022-10-31T02:25:53;11.88;;;5.07;;
64966;SDS011;51710;38.732;-121.358;2022-10-31T02:28:47;12.20;;;5.40;;
64966;SDS011;51710;38.732;-121.358;2022-10-31T02:31:40;9.63;;;4.43;;
64966;SDS011;51710;38.732;-121.358;2022-10-31T02:37:03;17.17;;;6.03;;
64966;SDS011;51710;38.732;-121.358;2022-10-31T02:39:43;14.95;;;5.80;;
64966;SDS011;51710;38.732;-121.358;2022-10-31T02:42:26;14.63;;;6.25;;
64966;SDS011;51710;38.732;-121.358;2022-10-31T02:47:44;11.93;;;5.45;;
64966;SDS011;51710;38.732;-121.358;2022-10-31T02:52:55;13.98;;;5.38;;
64966;SDS011;51710;38.732;-121.358;2022-10-31T02:57:51;13.02;;;5.50;;
64966;SDS011;51710;38.732;-121.358;2022-10-31T03:00:22;18.70;;;6.38;;
64966;SDS011;51710;38.732;-121.358;2022-10-31T03:02:52;10.90;;;5.55;;
64966;SDS011;51710;38.732;-121.358;2022-10-31T03:10:56;16.85;;;6.45;;
64966;SDS011;51710;38.732;-121.358;2022-10-31T03:16:23;12.05;;;6.10;;
64966;SDS011;51710;38.732;-121.358;2022-10-31T03:19:06;15.10;;;6.40;;
64966;SDS011;51710;38.732;-121.358;2022-10-31T03:24:07;13.77;;;6.57;;
64966;SDS011;51710;38.732;-121.358;2022-10-31T03:26:38;13.27;;;5.95;;
64966;SDS011;51710;38.732;-121.358;2022-10-31T03:29:09;11.40;;;5.60;;
64966;SDS011;51710;38.732;-121.358;2022-10-31T03:31:41;12.00;;;6.25;;
64966;SDS011;51710;38.732;-121.358;2022-10-31T03:34:15;11.40;;;6.00;;
64966;SDS011;51710;38.732;-121.358;2022-10-31T03:36:44;11.43;;;6.20;;
64966;SDS011;51710;38.732;-121.358;2022-10-31T03:39:14;13.18;;;6.85;;
64966;SDS011;51710;38.732;-121.358;2022-10-31T03:41:47;14.52;;;6.15;;
64966;SDS011;51710;38.732;-121.358;2022-10-31T03:44:19;13.90;;;6.50;;
64966;SDS011;51710;38.732;-121.358;2022-10-31T03:46:47;13.23;;;6.20;;
64966;SDS011;51710;38.732;-121.358;2022-10-31T03:49:14;11.82;;;6.55;;
64966;SDS011;51710;38.732;-121.358;2022-10-31T03:59:44;14.00;;;6.63;;
64966;SDS011;51710;38.732;-121.358;2022-10-31T04:02:17;12.55;;;5.68;;
64966;SDS011;51710;38.732;-121.358;2022-10-31T04:04:47;13.43;;;6.47;;
64966;SDS011;51710;38.732;-121.358;2022-10-31T04:07:16;14.20;;;6.88;;
64966;SDS011;51710;38.732;-121.358;2022-10-31T04:09:45;17.83;;;6.78;;
64966;SDS011;51710;38.732;-121.358;2022-10-31T04:12:15;18.20;;;6.95;;
64966;SDS011;51710;38.732;-121.358;2022-10-31T04:14:43;14.18;;;6.65;;
64966;SDS011;51710;38.732;-121.358;2022-10-31T04:17:13;13.13;;;6.20;;
64966;SDS011;51710;38.732;-121.358;2022-10-31T04:19:42;13.27;;;6.05;;
64966;SDS011;51710;38.732;-121.358;2022-10-31T04:22:08;16.92;;;7.38;;
64966;SDS011;51710;38.732;-121.358;2022-10-31T04:24:36;11.98;;;6.43;;
64966;SDS011;51710;38.732;-121.358;2022-10-31T04:27:04;12.60;;;6.15;;
64966;SDS011;51710;38.732;-121.358;2022-10-31T04:29:31;14.90;;;6.60;;
64966;SDS011;51710;38.732;-121.358;2022-10-31T04:31:57;12.90;;;6.03;;
64966;SDS011;51710;38.732;-121.358;2022-10-31T04:34:24;13.30;;;6.80;;
64966;SDS011;51710;38.732;-121.358;2022-10-31T04:36:50;14.27;;;6.55;;
64966;SDS011;51710;38.732;-121.358;2022-10-31T04:39:16;14.13;;;7.50;;
64966;SDS011;51710;38.732;-121.358;2022-10-31T04:41:43;15.43;;;6.90;;
64966;SDS011;51710;38.732;-121.358;2022-10-31T04:44:09;10.75;;;6.20;;
64966;SDS011;51710;38.732;-121.358;2022-10-31T04:46:36;11.13;;;6.15;;
64966;SDS011;51710;38.732;-121.358;2022-10-31T04:49:02;16.70;;;6.45;;
64966;SDS011;51710;38.732;-121.358;2022-10-31T04:51:28;15.88;;;6.82;;
64966;SDS011;51710;38.732;-121.358;2022-10-31T04:53:55;12.65;;;6.43;;
64966;SDS011;51710;38.732;-121.358;2022-10-31T04:56:21;12.77;;;6.38;;
64966;SDS011;51710;38.732;-121.358;2022-10-31T04:58:48;13.75;;;7.07;;
64966;SDS011;51710;38.732;-121.358;2022-10-31T05:01:14;18.63;;;6.47;;
64966;SDS011;51710;38.732;-121.358;2022-10-31T05:03:40;12.82;;;6.75;;
64966;SDS011;51710;38.732;-121.358;2022-10-31T05:06:07;13.40;;;6.28;;
64966;SDS011;51710;38.732;-121.358;2022-10-31T05:08:34;12.93;;;6.53;;
64966;SDS011;51710;38.732;-121.358;2022-10-31T05:11:00;16.02;;;6.57;;
64966;SDS011;51710;38.732;-121.358;2022-10-31T05:13:28;15.15;;;5.93;;
64966;SDS011;51710;38.732;-121.358;2022-10-31T05:15:55;12.90;;;6.43;;
64966;SDS011;51710;38.732;-121.358;2022-10-31T05:18:22;13.80;;;6.05;;
64966;SDS011;51710;38.732;-121.358;2022-10-31T05:20:48;12.80;;;5.88;;
64966;SDS011;51710;38.732;-121.358;2022-10-31T05:23:15;11.88;;;5.70;;
64966;SDS011;51710;38.732;-121.358;2022-10-31T05:25:41;13.23;;;5.88;;
64966;SDS011;51710;38.732;-121.358;2022-10-31T05:28:07;13.93;;;5.82;;
64966;SDS011;51710;38.732;-121.358;2022-10-31T05:30:34;13.23;;;5.93;;
64966;SDS011;51710;38.732;-121.358;2022-10-31T05:33:00;15.48;;;5.60;;
64966;SDS011;51710;38.732;-121.358;2022-10-31T05:35:28;10.75;;;6.00;;
64966;SDS011;51710;38.732;-121.358;2022-10-31T05:37:57;12.98;;;6.60;;
64966;SDS011;51710;38.732;-121.358;2022-10-31T05:40:24;14.30;;;5.82;;
64966;SDS011;51710;38.732;-121.358;2022-10-31T05:42:52;14.63;;;5.88;;
64966;SDS011;51710;38.732;-121.358;2022-10-31T05:45:20;13.43;;;5.38;;
64966;SDS011;51710;38.732;-121.358;2022-10-31T05:47:54;11.95;;;6.03;;
64966;SDS011;51710;38.732;-121.358;2022-10-31T05:52:54;12.82;;;5.72;;
64966;SDS011;51710;38.732;-121.358;2022-10-31T05:55:25;9.55;;;5.05;;
64966;SDS011;51710;38.732;-121.358;2022-10-31T05:57:52;13.73;;;6.07;;
64966;SDS011;51710;38.732;-121.358;2022-10-31T06:00:20;11.30;;;5.00;;
64966;SDS011;51710;38.732;-121.358;2022-10-31T06:02:47;12.45;;;5.40;;
64966;SDS011;51710;38.732;-121.358;2022-10-31T06:05:14;9.88;;;5.10;;
64966;SDS011;51710;38.732;-121.358;2022-10-31T06:07:41;9.77;;;4.32;;
64966;SDS011;51710;38.732;-121.358;2022-10-31T06:10:08;9.05;;;5.22;;
64966;SDS011;51710;38.732;-121.358;2022-10-31T06:12:35;11.27;;;5.38;;
64966;SDS011;51710;38.732;-121.358;2022-10-31T06:15:07;11.63;;;4.95;;
64966;SDS011;51710;38.732;-121.358;2022-10-31T06:17:34;15.85;;;5.38;;
64966;SDS011;51710;38.732;-121.358;2022-10-31T06:20:01;12.77;;;5.20;;
64966;SDS011;51710;38.732;-121.358;2022-10-31T06:22:28;10.25;;;4.85;;
64966;SDS011;51710;38.732;-121.358;2022-10-31T06:24:54;11.63;;;4.75;;
64966;SDS011;51710;38.732;-121.358;2022-10-31T06:27:21;13.13;;;5.15;;
64966;SDS011;51710;38.732;-121.358;2022-10-31T06:29:47;10.52;;;5.95;;
64966;SDS011;51710;38.732;-121.358;2022-10-31T06:32:14;12.77;;;5.38;;
64966;SDS011;51710;38.732;-121.358;2022-10-31T06:34:41;11.52;;;5.07;;
64966;SDS011;51710;38.732;-121.358;2022-10-31T06:37:08;11.93;;;5.05;;
64966;SDS011;51710;38.732;-121.358;2022-10-31T06:39:36;10.05;;;4.57;;
64966;SDS011;51710;38.732;-121.358;2022-10-31T06:42:03;9.27;;;4.72;;
64966;SDS011;51710;38.732;-121.358;2022-10-31T06:44:30;13.02;;;5.00;;
64966;SDS011;51710;38.732;-121.358;2022-10-31T06:46:57;9.90;;;4.70;;
64966;SDS011;51710;38.732;-121.358;2022-10-31T06:49:24;8.75;;;4.90;;
64966;SDS011;51710;38.732;-121.358;2022-10-31T06:51:50;10.15;;;4.45;;
64966;SDS011;51710;38.732;-121.358;2022-10-31T06:54:17;8.63;;;4.18;;
64966;SDS011;51710;38.732;-121.358;2022-10-31T06:56:45;11.07;;;4.35;;
64966;SDS011;51710;38.732;-121.358;2022-10-31T06:59:15;8.32;;;4.30;;
64966;SDS011;51710;38.732;-121.358;2022-10-31T07:01:41;7.88;;;4.47;;
64966;SDS011;51710;38.732;-121.358;2022-10-31T07:04:11;8.73;;;4.75;;
64966;SDS011;51710;38.732;-121.358;2022-10-31T07:06:37;11.23;;;4.40;;
64966;SDS011;51710;38.732;-121.358;2022-10-31T07:09:04;7.93;;;4.22;;
64966;SDS011;51710;38.732;-121.358;2022-10-31T07:11:30;12.90;;;5.03;;
64966;SDS011;51710;38.732;-121.358;2022-10-31T07:13:57;9.73;;;4.80;;
64966;SDS011;51710;38.732;-121.358;2022-10-31T07:16:23;8.77;;;4.82;;
64966;SDS011;51710;38.732;-121.358;2022-10-31T07:18:53;10.93;;;5.10;;
64966;SDS011;51710;38.732;-121.358;2022-10-31T07:21:19;14.57;;;4.93;;
64966;SDS011;51710;38.732;-121.358;2022-10-31T07:23:49;14.15;;;5.90;;
64966;SDS011;51710;38.732;-121.358;2022-10-31T07:26:15;11.18;;;5.07;;
64966;SDS011;51710;38.732;-121.358;2022-10-31T07:28:42;9.25;;;4.70;;
64966;SDS011;51710;38.732;-121.358;2022-10-31T07:31:08;12.10;;;5.18;;
64966;SDS011;51710;38.732;-121.358;2022-10-31T07:33:35;12.05;;;6.05;;
64966;SDS011;51710;38.732;-121.358;2022-10-31T07:36:01;13.57;;;7.03;;
64966;SDS011;51710;38.732;-121.358;2022-10-31T07:38:28;13.93;;;5.97;;
64966;SDS011;51710;38.732;-121.358;2022-10-31T07:40:54;11.73;;;5.90;;
64966;SDS011;51710;38.732;-121.358;2022-10-31T07:43:21;9.73;;;5.47;;
64966;SDS011;51710;38.732;-121.358;2022-10-31T07:45:53;10.55;;;5.13;;
64966;SDS011;51710;38.732;-121.358;2022-10-31T07:48:20;9.95;;;3.95;;
64966;SDS011;51710;38.732;-121.358;2022-10-31T07:50:46;8.80;;;4.20;;
64966;SDS011;51710;38.732;-121.358;2022-10-31T07:53:13;10.82;;;4.35;;
64966;SDS011;51710;38.732;-121.358;2022-10-31T07:55:41;9.65;;;3.60;;
64966;SDS011;51710;38.732;-121.358;2022-10-31T07:58:09;7.00;;;3.70;;
64966;SDS011;51710;38.732;-121.358;2022-10-31T08:00:37;9.32;;;4.20;;
64966;SDS011;51710;38.732;-121.358;2022-10-31T08:03:09;7.85;;;3.97;;
64966;SDS011;51710;38.732;-121.358;2022-10-31T08:05:37;15.23;;;4.03;;
64966;SDS011;51710;38.732;-121.358;2022-10-31T08:08:06;10.85;;;4.30;;
64966;SDS011;51710;38.732;-121.358;2022-10-31T08:10:33;8.13;;;3.70;;
64966;SDS011;51710;38.732;-121.358;2022-10-31T08:13:01;7.03;;;3.92;;
64966;SDS011;51710;38.732;-121.358;2022-10-31T08:15:29;8.82;;;3.75;;
64966;SDS011;51710;38.732;-121.358;2022-10-31T08:17:56;6.43;;;3.65;;
64966;SDS011;51710;38.732;-121.358;2022-10-31T08:20:23;8.50;;;4.13;;
64966;SDS011;51710;38.732;-121.358;2022-10-31T08:22:53;8.32;;;3.90;;
64966;SDS011;51710;38.732;-121.358;2022-10-31T08:25:24;10.38;;;3.95;;
64966;SDS011;51710;38.732;-121.358;2022-10-31T08:27:52;8.80;;;4.05;;
64966;SDS011;51710;38.732;-121.358;2022-10-31T08:30:19;8.05;;;3.90;;
64966;SDS011;51710;38.732;-121.358;2022-10-31T08:32:47;9.70;;;4.20;;
64966;SDS011;51710;38.732;-121.358;2022-10-31T08:35:25;10.73;;;4.90;;
64966;SDS011;51710;38.732;-121.358;2022-10-31T08:37:52;19.83;;;5.38;;
64966;SDS011;51710;38.732;-121.358;2022-10-31T08:40:22;13.13;;;4.65;;
64966;SDS011;51710;38.732;-121.358;2022-10-31T08:42:59;13.15;;;5.35;;
64966;SDS011;51710;38.732;-121.358;2022-10-31T08:45:27;9.43;;;4.28;;
64966;SDS011;51710;38.732;-121.358;2022-10-31T08:47:58;9.18;;;4.47;;
64966;SDS011;51710;38.732;-121.358;2022-10-31T08:50:26;10.35;;;4.45;;
64966;SDS011;51710;38.732;-121.358;2022-10-31T08:52:53;8.20;;;4.13;;
64966;SDS011;51710;38.732;-121.358;2022-10-31T08:55:29;8.95;;;4.32;;
64966;SDS011;51710;38.732;-121.358;2022-10-31T08:57:56;11.85;;;4.50;;
64966;SDS011;51710;38.732;-121.358;2022-10-31T09:00:23;10.63;;;4.28;;
64966;SDS011;51710;38.732;-121.358;2022-10-31T09:02:56;10.60;;;4.20;;
64966;SDS011;51710;38.732;-121.358;2022-10-31T09:05:23;9.15;;;4.10;;
64966;SDS011;51710;38.732;-121.358;2022-10-31T09:07:50;7.88;;;3.65;;
64966;SDS011;51710;38.732;-121.358;2022-10-31T09:10:20;7.63;;;4.03;;
64966;SDS011;51710;38.732;-121.358;2022-10-31T09:12:47;7.85;;;3.85;;
64966;SDS011;51710;38.732;-121.358;2022-10-31T09:15:19;6.60;;;3.45;;
64966;SDS011;51710;38.732;-121.358;2022-10-31T09:17:46;11.25;;;3.80;;
64966;SDS011;51710;38.732;-121.358;2022-10-31T09:20:13;6.95;;;3.40;;
64966;SDS011;51710;38.732;-121.358;2022-10-31T09:22:40;6.38;;;3.22;;
64966;SDS011;51710;38.732;-121.358;2022-10-31T09:25:07;6.15;;;3.03;;
64966;SDS011;51710;38.732;-121.358;2022-10-31T09:27:33;7.00;;;2.90;;
64966;SDS011;51710;38.732;-121.358;2022-10-31T09:30:00;9.93;;;3.15;;
64966;SDS011;51710;38.732;-121.358;2022-10-31T09:32:29;8.80;;;3.03;;
64966;SDS011;51710;38.732;-121.358;2022-10-31T09:34:55;6.82;;;3.05;;
64966;SDS011;51710;38.732;-121.358;2022-10-31T09:37:22;7.43;;;2.90;;
64966;SDS011;51710;38.732;-121.358;2022-10-31T09:39:48;6.15;;;2.90;;
64966;SDS011;51710;38.732;-121.358;2022-10-31T09:44:50;5.95;;;2.90;;
64966;SDS011;51710;38.732;-121.358;2022-10-31T09:47:21;8.02;;;2.90;;
64966;SDS011;51710;38.732;-121.358;2022-10-31T09:50:11;6.80;;;2.75;;
64966;SDS011;51710;38.732;-121.358;2022-10-31T09:52:51;5.47;;;3.35;;
64966;SDS011;51710;38.732;-121.358;2022-10-31T09:55:40;6.68;;;2.80;;
64966;SDS011;51710;38.732;-121.358;2022-10-31T09:58:19;5.03;;;2.90;;
64966;SDS011;51710;38.732;-121.358;2022-10-31T10:00:50;5.72;;;2.88;;
64966;SDS011;51710;38.732;-121.358;2022-10-31T10:08:44;9.98;;;2.85;;
64966;SDS011;51710;38.732;-121.358;2022-10-31T10:11:35;10.95;;;3.50;;
64966;SDS011;51710;38.732;-121.358;2022-10-31T10:25:21;5.85;;;2.65;;
64966;SDS011;51710;38.732;-121.358;2022-10-31T10:28:07;5.35;;;3.20;;
64966;SDS011;51710;38.732;-121.358;2022-10-31T10:30:51;5.47;;;2.63;;
64966;SDS011;51710;38.732;-121.358;2022-10-31T10:33:24;6.55;;;2.85;;
64966;SDS011;51710;38.732;-121.358;2022-10-31T10:36:08;7.35;;;2.80;;
64966;SDS011;51710;38.732;-121.358;2022-10-31T10:39:11;5.78;;;2.78;;
64966;SDS011;51710;38.732;-121.358;2022-10-31T10:41:49;6.03;;;2.50;;
64966;SDS011;51710;38.732;-121.358;2022-10-31T10:44:38;5.47;;;2.97;;
64966;SDS011;51710;38.732;-121.358;2022-10-31T10:47:28;7.63;;;3.17;;
64966;SDS011;51710;38.732;-121.358;2022-10-31T10:50:10;5.57;;;2.85;;
64966;SDS011;51710;38.732;-121.358;2022-10-31T11:00:45;6.20;;;3.33;;
64966;SDS011;51710;38.732;-121.358;2022-10-31T11:03:13;6.18;;;3.30;;
64966;SDS011;51710;38.732;-121.358;2022-10-31T11:05:57;6.65;;;3.45;;
64966;SDS011;51710;38.732;-121.358;2022-10-31T11:13:39;6.13;;;3.00;;
64966;SDS011;51710;38.732;-121.358;2022-10-31T11:16:08;6.70;;;3.35;;
64966;SDS011;51710;38.732;-121.358;2022-10-31T11:18:44;6.38;;;3.40;;
64966;SDS011;51710;38.732;-121.358;2022-10-31T11:21:23;6.72;;;3.10;;
64966;SDS011;51710;38.732;-121.358;2022-10-31T11:27:02;6.55;;;2.65;;
64966;SDS011;51710;38.732;-121.358;2022-10-31T11:29:40;9.43;;;3.47;;
64966;SDS011;51710;38.732;-121.358;2022-10-31T11:32:08;7.85;;;3.40;;
64966;SDS011;51710;38.732;-121.358;2022-10-31T11:34:45;8.60;;;3.70;;
64966;SDS011;51710;38.732;-121.358;2022-10-31T11:39:45;7.25;;;3.50;;
64966;SDS011;51710;38.732;-121.358;2022-10-31T11:42:19;7.50;;;3.05;;
64966;SDS011;51710;38.732;-121.358;2022-10-31T11:45:17;8.32;;;3.42;;
64966;SDS011;51710;38.732;-121.358;2022-10-31T11:47:54;9.10;;;3.67;;
64966;SDS011;51710;38.732;-121.358;2022-10-31T11:50:22;7.00;;;3.08;;
64966;SDS011;51710;38.732;-121.358;2022-10-31T11:52:52;8.52;;;3.47;;
64966;SDS011;51710;38.732;-121.358;2022-10-31T11:55:33;8.60;;;3.25;;
64966;SDS011;51710;38.732;-121.358;2022-10-31T11:58:02;7.65;;;3.78;;
64966;SDS011;51710;38.732;-121.358;2022-10-31T12:00:32;7.57;;;2.95;;
64966;SDS011;51710;38.732;-121.358;2022-10-31T12:03:10;6.53;;;3.42;;
64966;SDS011;51710;38.732;-121.358;2022-10-31T12:05:42;9.30;;;3.85;;
64966;SDS011;51710;38.732;-121.358;2022-10-31T12:08:11;9.70;;;3.45;;
64966;SDS011;51710;38.732;-121.358;2022-10-31T12:10:43;6.20;;;3.13;;
64966;SDS011;51710;38.732;-121.358;2022-10-31T12:13:21;7.15;;;3.60;;
64966;SDS011;51710;38.732;-121.358;2022-10-31T12:16:12;6.45;;;3.33;;
64966;SDS011;51710;38.732;-121.358;2022-10-31T12:21:48;11.07;;;3.60;;
64966;SDS011;51710;38.732;-121.358;2022-10-31T12:25:09;11.88;;;3.30;;
64966;SDS011;51710;38.732;-121.358;2022-10-31T12:33:45;7.45;;;3.35;;
64966;SDS011;51710;38.732;-121.358;2022-10-31T12:44:38;6.38;;;3.28;;
64966;SDS011;51710;38.732;-121.358;2022-10-31T12:47:40;10.43;;;3.40;;
64966;SDS011;51710;38.732;-121.358;2022-10-31T12:58:40;5.80;;;3.22;;
64966;SDS011;51710;38.732;-121.358;2022-10-31T13:04:05;8.27;;;3.38;;
64966;SDS011;51710;38.732;-121.358;2022-10-31T13:06:48;7.50;;;3.30;;
64966;SDS011;51710;38.732;-121.358;2022-10-31T13:09:20;10.02;;;4.25;;
64966;SDS011;51710;38.732;-121.358;2022-10-31T13:11:56;6.25;;;3.42;;
64966;SDS011;51710;38.732;-121.358;2022-10-31T13:14:32;7.63;;;3.03;;
64966;SDS011;51710;38.732;-121.358;2022-10-31T13:17:31;7.10;;;3.72;;
64966;SDS011;51710;38.732;-121.358;2022-10-31T13:22:38;8.93;;;3.75;;
64966;SDS011;51710;38.732;-121.358;2022-10-31T13:27:45;10.00;;;3.53;;
64966;SDS011;51710;38.732;-121.358;2022-10-31T13:30:28;11.63;;;4.05;;
64966;SDS011;51710;38.732;-121.358;2022-10-31T13:33:00;8.15;;;3.33;;
64966;SDS011;51710;38.732;-121.358;2022-10-31T13:41:40;9.85;;;3.83;;
64966;SDS011;51710;38.732;-121.358;2022-10-31T13:44:20;11.90;;;4.20;;
64966;SDS011;51710;38.732;-121.358;2022-10-31T13:46:55;7.25;;;4.10;;
64966;SDS011;51710;38.732;-121.358;2022-10-31T13:49:44;10.48;;;3.60;;
64966;SDS011;51710;38.732;-121.358;2022-10-31T13:54:37;9.40;;;3.63;;
64966;SDS011;51710;38.732;-121.358;2022-10-31T14:02:46;7.97;;;3.88;;
64966;SDS011;51710;38.732;-121.358;2022-10-31T14:07:51;11.43;;;3.40;;
64966;SDS011;51710;38.732;-121.358;2022-10-31T14:13:04;9.57;;;3.40;;
64966;SDS011;51710;38.732;-121.358;2022-10-31T14:15:31;8.30;;;3.60;;
64966;SDS011;51710;38.732;-121.358;2022-10-31T14:17:59;8.52;;;3.55;;
64966;SDS011;51710;38.732;-121.358;2022-10-31T14:23:11;9.23;;;3.72;;
64966;SDS011;51710;38.732;-121.358;2022-10-31T14:25:37;7.57;;;3.38;;
64966;SDS011;51710;38.732;-121.358;2022-10-31T14:33:29;7.75;;;3.60;;
64966;SDS011;51710;38.732;-121.358;2022-10-31T14:35:59;11.88;;;3.65;;
64966;SDS011;51710;38.732;-121.358;2022-10-31T14:38:33;12.75;;;3.55;;
64966;SDS011;51710;38.732;-121.358;2022-10-31T14:46:44;10.07;;;3.67;;
64966;SDS011;51710;38.732;-121.358;2022-10-31T14:49:46;10.85;;;4.15;;
64966;SDS011;51710;38.732;-121.358;2022-10-31T14:52:23;7.15;;;3.22;;
64966;SDS011;51710;38.732;-121.358;2022-10-31T14:54:51;9.93;;;4.05;;
64966;SDS011;51710;38.732;-121.358;2022-10-31T14:57:25;10.15;;;4.22;;
64966;SDS011;51710;38.732;-121.358;2022-10-31T14:59:56;11.60;;;4.13;;
64966;SDS011;51710;38.732;-121.358;2022-10-31T15:05:23;9.98;;;3.72;;
64966;SDS011;51710;38.732;-121.358;2022-10-31T15:07:56;10.82;;;3.88;;
64966;SDS011;51710;38.732;-121.358;2022-10-31T15:12:51;11.15;;;4.32;;
64966;SDS011;51710;38.732;-121.358;2022-10-31T15:15:20;13.38;;;3.67;;
64966;SDS011;51710;38.732;-121.358;2022-10-31T15:17:49;16.48;;;3.95;;
64966;SDS011;51710;38.732;-121.358;2022-10-31T15:20:22;7.75;;;3.67;;
64966;SDS011;51710;38.732;-121.358;2022-10-31T15:22:51;8.13;;;4.30;;
64966;SDS011;51710;38.732;-121.358;2022-10-31T15:25:22;19.83;;;4.40;;
64966;SDS011;51710;38.732;-121.358;2022-10-31T15:27:50;12.10;;;3.65;;
64966;SDS011;51710;38.732;-121.358;2022-10-31T15:30:25;8.75;;;3.65;;
64966;SDS011;51710;38.732;-121.358;2022-10-31T15:32:53;18.58;;;4.07;;
64966;SDS011;51710;38.732;-121.358;2022-10-31T15:35:24;13.18;;;4.57;;
64966;SDS011;51710;38.732;-121.358;2022-10-31T15:37:56;20.38;;;4.40;;
64966;SDS011;51710;38.732;-121.358;2022-10-31T15:40:24;14.00;;;4.03;;
64966;SDS011;51710;38.732;-121.358;2022-10-31T15:42:53;10.18;;;4.10;;
64966;SDS011;51710;38.732;-121.358;2022-10-31T15:45:24;9.85;;;3.35;;
64966;SDS011;51710;38.732;-121.358;2022-10-31T15:50:45;12.02;;;4.68;;
64966;SDS011;51710;38.732;-121.358;2022-10-31T15:53:19;10.70;;;3.95;;
64966;SDS011;51710;38.732;-121.358;2022-10-31T15:55:49;11.18;;;3.65;;
64966;SDS011;51710;38.732;-121.358;2022-10-31T15:58:23;21.45;;;4.35;;
64966;SDS011;51710;38.732;-121.358;2022-10-31T16:01:05;10.95;;;3.90;;
64966;SDS011;51710;38.732;-121.358;2022-10-31T16:03:54;10.40;;;4.13;;
64966;SDS011;51710;38.732;-121.358;2022-10-31T16:06:22;9.85;;;3.70;;
64966;SDS011;51710;38.732;-121.358;2022-10-31T16:08:49;13.15;;;4.25;;
64966;SDS011;51710;38.732;-121.358;2022-10-31T16:11:37;13.18;;;3.88;;
64966;SDS011;51710;38.732;-121.358;2022-10-31T16:14:05;16.05;;;3.92;;
64966;SDS011;51710;38.732;-121.358;2022-10-31T16:16:42;12.98;;;4.25;;
64966;SDS011;51710;38.732;-121.358;2022-10-31T16:22:07;11.77;;;3.50;;
64966;SDS011;51710;38.732;-121.358;2022-10-31T16:24:47;12.60;;;4.13;;
64966;SDS011;51710;38.732;-121.358;2022-10-31T16:27:18;12.32;;;3.90;;
64966;SDS011;51710;38.732;-121.358;2022-10-31T16:29:52;8.75;;;3.47;;
64966;SDS011;51710;38.732;-121.358;2022-10-31T16:37:37;13.70;;;3.28;;
64966;SDS011;51710;38.732;-121.358;2022-10-31T16:40:04;12.38;;;3.80;;
64966;SDS011;51710;38.732;-121.358;2022-10-31T16:42:31;13.15;;;3.42;;
64966;SDS011;51710;38.732;-121.358;2022-10-31T16:44:58;10.15;;;3.28;;
64966;SDS011;51710;38.732;-121.358;2022-10-31T16:47:25;8.05;;;3.47;;
64966;SDS011;51710;38.732;-121.358;2022-10-31T16:49:51;9.13;;;3.05;;
64966;SDS011;51710;38.732;-121.358;2022-10-31T16:52:18;5.93;;;2.83;;
64966;SDS011;51710;38.732;-121.358;2022-10-31T16:54:44;7.25;;;3.22;;
64966;SDS011;51710;38.732;-121.358;2022-10-31T16:57:18;22.38;;;4.50;;
64966;SDS011;51710;38.732;-121.358;2022-10-31T16:59:51;31.33;;;4.15;;
64966;SDS011;51710;38.732;-121.358;2022-10-31T17:02:21;11.70;;;4.88;;